Alaskan Frontier — WDB7815 — position and weather

sailwx.info

Track history (hours):
 
Tides and Currents Weather Stations Pressure Air Temp Water Temp Dewpoint Dewpoint Depression Visibility Wind Speed Wind Dir Waves Ship Positions

Alaskan Frontier

Owner: ALASKA TANKER COMPANY, Beaverton, OR. More information available from US FCC via Universal Licensing System and Coast Guard Vessel Documentation Center.

Last reported at 2018-Feb-20 01:54 UTC. Time now 2018-Feb-20 02:10 UTC.
Position N 46°12' W 125°35'.

Type: Tanker. MMSI: 366948190.

Date/timePositionNaut miles runAvg speedWind from/ knotsBaromVisibWave heightAir tempDewpointWater temp
2018-Feb-20 01:54N 46°12' W 125°35'614.3
2018-Feb-20 01:31N 46°12' W 125°27'714.4
2018-Feb-20 01:01N 46°12' W 125°16'714.1
2018-Feb-20 00:30N 46°12' W 125°06'713.7
2018-Feb-20 00:00N 46°12' W 124°56'713.4
2018-Feb-19 23:30N 46°12' W 124°46'713.5
2018-Feb-19 23:00N 46°12' W 124°37'713.4
2018-Feb-19 22:31N 46°12' W 124°27'713.9
2018-Feb-19 22:00N 46°11' W 124°17'5 9.9
2018-Feb-19 21:30N 46°10' W 124°10'4 7.5
2018-Feb-19 21:00N 46°13' W 124°08'510.1
2018-Feb-19 20:31N 46°15' W 124°01'611.9
2018-Feb-19 20:01N 46°11' W 123°54'10 9.7
2018-Feb-19 18:58N 46°15' W 123°41'1012.8
2018-Feb-19 18:10N 46°14' W 123°26'214.8
2018-Feb-19 18:01N 46°12' W 123°26'510.7
2018-Feb-19 17:31N 46°09' W 123°20'815.2
2018-Feb-19 17:00N 46°11' W 123°10'714.2
2018-Feb-19 16:30N 46°08' W 123°01'510.3
2018-Feb-19 15:59N 46°05' W 122°54'5 9.9
2018-Feb-19 15:28N 46°00' W 122°51'510.8
2018-Feb-19 15:00N 45°56' W 122°48'611.1
2018-Feb-19 14:31N 45°50' W 122°47'612.5
2018-Feb-19 14:00N 45°44' W 122°46'611.4
2018-Feb-19 13:31N 45°39' W 122°47'3 6.3
2018-Feb-19 13:00N 45°35' W 122°46'2 2.1
2018-Feb-19 11:52N 45°34' W 122°44'0 0.0
2018-Feb-19 10:46N 45°34' W 122°44'0 0.0
2018-Feb-19 10:28N 45°34' W 122°44'0 0.0
2018-Feb-19 09:58N 45°34' W 122°44'0 0.0
2018-Feb-19 09:04N 45°34' W 122°44'0 0.1
2018-Feb-19 08:58N 45°34' W 122°44'0 0.0
2018-Feb-19 08:25N 45°34' W 122°44'0 0.0
2018-Feb-19 07:40N 45°34' W 122°44'0 0.0
2018-Feb-19 07:19N 45°34' W 122°44'0 0.0
2018-Feb-19 06:55N 45°34' W 122°44'0 0.0
2018-Feb-19 06:28N 45°34' W 122°44'0 0.0
2018-Feb-19 05:58N 45°34' W 122°44'0 0.0
2018-Feb-19 05:16N 45°34' W 122°44'0 0.0
2018-Feb-19 04:49N 45°34' W 122°44'0 0.0
2018-Feb-19 04:28N 45°34' W 122°44'0 0.0
2018-Feb-19 03:55N 45°34' W 122°44'0 0.0
2018-Feb-19 03:28N 45°34' W 122°44'0 0.0
2018-Feb-19 02:58N 45°34' W 122°44'0 0.0
2018-Feb-19 02:25N 45°34' W 122°44'0 0.0
2018-Feb-19 01:58N 45°34' W 122°44'0 0.0
2018-Feb-19 01:28N 45°34' W 122°44'0 0.0
2018-Feb-19 00:52N 45°34' W 122°44'0 0.0
2018-Feb-19 00:28N 45°34' W 122°44'0 0.0
2018-Feb-18 23:58N 45°34' W 122°44'0 0.0
2018-Feb-18 23:25N 45°34' W 122°44'0 0.0
2018-Feb-18 22:58N 45°34' W 122°44'0 0.0
2018-Feb-18 22:28N 45°34' W 122°44'0 0.0
2018-Feb-18 21:55N 45°34' W 122°44'0 0.0
2018-Feb-18 21:25N 45°34' W 122°44'0 0.0
2018-Feb-18 20:55N 45°34' W 122°44'0 0.0
2018-Feb-18 20:28N 45°34' W 122°44'0 0.0
2018-Feb-18 19:55N 45°34' W 122°44'0 0.0
2018-Feb-18 19:28N 45°34' W 122°44'0 0.0
2018-Feb-18 18:58N 45°34' W 122°44'0 0.0
2018-Feb-18 18:28N 45°34' W 122°44'0 0.0
2018-Feb-18 17:55N 45°34' W 122°44'0 0.0
2018-Feb-18 17:28N 45°34' W 122°44'0 0.0
2018-Feb-18 16:52N 45°34' W 122°44'0 0.0
2018-Feb-18 16:28N 45°34' W 122°44'0 0.0
2018-Feb-18 15:46N 45°34' W 122°44'0 0.0
2018-Feb-18 15:28N 45°34' W 122°44'0 0.0
2018-Feb-18 14:55N 45°34' W 122°44'0 0.0
2018-Feb-18 14:28N 45°34' W 122°44'0 0.0
2018-Feb-18 13:55N 45°34' W 122°44'0 0.0
2018-Feb-18 13:22N 45°34' W 122°44'0 0.0
2018-Feb-18 12:58N 45°34' W 122°44'0 0.0
2018-Feb-18 12:19N 45°34' W 122°44'0 0.0
2018-Feb-18 11:58N 45°34' W 122°44'0 0.0
2018-Feb-18 11:28N 45°34' W 122°44'0 0.0
2018-Feb-18 10:55N 45°34' W 122°44'0 0.0
2018-Feb-18 10:10N 45°34' W 122°44'0 0.0
2018-Feb-18 09:43N 45°34' W 122°44'0 0.0
2018-Feb-18 09:28N 45°34' W 122°44'0 0.0
2018-Feb-18 08:58N 45°34' W 122°44'0 0.0
2018-Feb-18 08:28N 45°34' W 122°44'0 0.0
2018-Feb-18 07:55N 45°34' W 122°44'0 0.0
2018-Feb-18 07:19N 45°34' W 122°44'0 0.0
2018-Feb-18 06:52N 45°34' W 122°44'0 0.0
2018-Feb-18 06:25N 45°34' W 122°44'0 0.0
2018-Feb-18 05:58N 45°34' W 122°44'0 0.0
2018-Feb-18 05:28N 45°34' W 122°44'0 0.0
2018-Feb-18 04:55N 45°34' W 122°44'0 0.0
2018-Feb-18 04:28N 45°34' W 122°44'0 0.0
2018-Feb-18 03:58N 45°34' W 122°44'0 0.0
2018-Feb-18 03:22N 45°34' W 122°44'0 0.0
2018-Feb-18 02:58N 45°34' W 122°44'0 0.0
2018-Feb-18 02:28N 45°34' W 122°44'0 0.0
2018-Feb-18 01:55N 45°34' W 122°44'0 0.0
2018-Feb-18 01:22N 45°34' W 122°44'0 0.0
2018-Feb-18 00:55N 45°34' W 122°44'0 0.0
2018-Feb-18 00:10N 45°34' W 122°44'0 0.0
2018-Feb-17 23:46N 45°34' W 122°44'0 0.0
2018-Feb-17 23:25N 45°34' W 122°44'0 0.0
2018-Feb-17 22:58N 45°34' W 122°44'0 0.0
2018-Feb-17 22:28N 45°34' W 122°44'0 0.0
2018-Feb-17 21:58N 45°34' W 122°44'0 0.0
2018-Feb-17 21:28N 45°34' W 122°44'0 0.0
2018-Feb-17 20:58N 45°34' W 122°44'0 0.0
2018-Feb-17 20:28N 45°34' W 122°44'0 0.0
2018-Feb-17 19:58N 45°34' W 122°44'0 0.0
2018-Feb-17 19:28N 45°34' W 122°44'0 0.0
2018-Feb-17 18:58N 45°34' W 122°44'0 0.0
2018-Feb-17 18:28N 45°34' W 122°44'0 0.0
2018-Feb-17 17:58N 45°34' W 122°44'0 0.0
2018-Feb-17 17:28N 45°34' W 122°44'0 0.0
2018-Feb-17 16:58N 45°34' W 122°44'0 0.0
2018-Feb-17 16:28N 45°34' W 122°44'0 0.0
2018-Feb-17 15:58N 45°34' W 122°44'0 0.0
2018-Feb-17 15:28N 45°34' W 122°44'0 0.0
2018-Feb-17 14:58N 45°34' W 122°44'0 0.0
2018-Feb-17 14:28N 45°34' W 122°44'0 0.0
2018-Feb-17 13:58N 45°34' W 122°44'0 0.0
2018-Feb-17 13:28N 45°34' W 122°44'0 0.0
2018-Feb-17 12:58N 45°34' W 122°44'0 0.0
2018-Feb-17 12:28N 45°34' W 122°44'0 0.0
2018-Feb-17 11:58N 45°34' W 122°44'0 0.0
2018-Feb-17 11:28N 45°34' W 122°44'0 0.0
2018-Feb-17 10:58N 45°34' W 122°44'0 0.0
2018-Feb-17 10:28N 45°34' W 122°44'0 0.0
2018-Feb-17 09:58N 45°34' W 122°44'0 0.0
2018-Feb-17 09:28N 45°34' W 122°44'0 0.0
2018-Feb-17 08:58N 45°34' W 122°44'0 0.0
2018-Feb-17 08:28N 45°34' W 122°44'0 0.0
2018-Feb-17 07:58N 45°34' W 122°44'0 0.0
2018-Feb-17 07:28N 45°34' W 122°44'0 0.0
2018-Feb-17 06:58N 45°34' W 122°44'0 0.0
2018-Feb-17 06:25N 45°34' W 122°44'0 0.0
2018-Feb-17 05:58N 45°34' W 122°44'0 0.0
2018-Feb-17 05:28N 45°34' W 122°44'0 0.0
2018-Feb-17 04:58N 45°34' W 122°44'0 0.0
2018-Feb-17 04:28N 45°34' W 122°44'0 0.0
2018-Feb-17 03:58N 45°34' W 122°44'0 0.0
2018-Feb-17 03:28N 45°34' W 122°44'0 0.0
2018-Feb-17 02:58N 45°34' W 122°44'0 0.0
2018-Feb-17 02:28N 45°34' W 122°44'0 0.0
2018-Feb-17 01:58N 45°34' W 122°44'0 0.0
2018-Feb-17 01:28N 45°34' W 122°44'0 0.0
2018-Feb-17 00:58N 45°34' W 122°44'0 0.0
2018-Feb-17 00:28N 45°34' W 122°44'0 0.0
2018-Feb-16 23:58N 45°34' W 122°44'0 0.0
2018-Feb-16 23:28N 45°34' W 122°44'0 0.0
2018-Feb-16 22:58N 45°34' W 122°44'0 0.0
2018-Feb-16 22:28N 45°34' W 122°44'0 0.0
2018-Feb-16 21:58N 45°34' W 122°44'0 0.0
2018-Feb-16 21:28N 45°34' W 122°44'0 0.0
2018-Feb-16 20:58N 45°34' W 122°44'0 0.0
2018-Feb-16 20:28N 45°34' W 122°44'0 0.0
2018-Feb-16 19:58N 45°34' W 122°44'0 0.0
2018-Feb-16 19:28N 45°34' W 122°44'0 0.0
2018-Feb-16 18:58N 45°34' W 122°44'0 0.0
2018-Feb-16 18:28N 45°34' W 122°44'0 0.0
2018-Feb-16 17:58N 45°34' W 122°44'0 0.0
2018-Feb-16 17:28N 45°34' W 122°44'0 0.0
2018-Feb-16 16:58N 45°34' W 122°44'0 0.0
2018-Feb-16 16:25N 45°34' W 122°44'0 0.0
2018-Feb-16 15:58N 45°34' W 122°44'0 0.0
2018-Feb-16 15:28N 45°34' W 122°44'0 0.0
2018-Feb-16 14:58N 45°34' W 122°44'0 0.0
2018-Feb-16 14:28N 45°34' W 122°44'0 0.0
2018-Feb-16 13:58N 45°34' W 122°44'0 0.0
2018-Feb-16 13:28N 45°34' W 122°44'0 0.0
2018-Feb-16 12:58N 45°34' W 122°44'0 0.0
2018-Feb-16 12:28N 45°34' W 122°44'0 0.0
2018-Feb-16 11:58N 45°34' W 122°44'0 0.0
2018-Feb-16 11:28N 45°34' W 122°44'0 0.0
2018-Feb-16 10:58N 45°34' W 122°44'0 0.0
2018-Feb-16 10:28N 45°34' W 122°44'0 0.0
2018-Feb-16 09:58N 45°34' W 122°44'0 0.0
2018-Feb-16 09:25N 45°34' W 122°44'0 0.0
2018-Feb-16 08:58N 45°34' W 122°44'0 0.0
2018-Feb-16 08:28N 45°34' W 122°44'0 0.0
2018-Feb-16 07:58N 45°34' W 122°44'0 0.0
2018-Feb-16 07:28N 45°34' W 122°44'0 0.0
2018-Feb-16 06:58N 45°34' W 122°44'0 0.0
2018-Feb-16 06:28N 45°34' W 122°44'0 0.0
2018-Feb-16 05:58N 45°34' W 122°44'0 0.0
2018-Feb-16 05:28N 45°34' W 122°44'0 0.0
2018-Feb-16 04:58N 45°34' W 122°44'0 0.0
2018-Feb-16 04:28N 45°34' W 122°44'0 0.0
2018-Feb-16 03:58N 45°34' W 122°44'0 0.0
2018-Feb-16 03:28N 45°34' W 122°44'0 0.0
2018-Feb-16 02:58N 45°34' W 122°44'0 0.0
2018-Feb-16 02:28N 45°34' W 122°44'0 0.0
2018-Feb-16 01:58N 45°34' W 122°44'0 0.0
2018-Feb-16 01:28N 45°34' W 122°44'0 0.0
2018-Feb-16 00:58N 45°34' W 122°44'0 0.0
2018-Feb-16 00:28N 45°34' W 122°44'0 0.0
2018-Feb-15 23:58N 45°34' W 122°44'0 0.0
2018-Feb-15 23:28N 45°34' W 122°44'0 0.0
2018-Feb-15 22:58N 45°34' W 122°44'0 0.0
2018-Feb-15 22:28N 45°34' W 122°44'0 0.0
2018-Feb-15 21:58N 45°34' W 122°44'0 0.0
2018-Feb-15 21:28N 45°34' W 122°44'0 0.0
2018-Feb-15 20:58N 45°34' W 122°44'0 0.0
2018-Feb-15 20:28N 45°34' W 122°44'0 0.0
2018-Feb-15 19:58N 45°34' W 122°44'0 0.0
2018-Feb-15 19:28N 45°34' W 122°44'0 0.0
2018-Feb-15 18:58N 45°34' W 122°44'0 0.0
2018-Feb-15 18:28N 45°34' W 122°44'0 0.0
2018-Feb-15 17:58N 45°34' W 122°44'0 0.0
2018-Feb-15 17:28N 45°34' W 122°44'0 0.0
2018-Feb-15 16:58N 45°34' W 122°44'0 0.0
2018-Feb-15 16:28N 45°34' W 122°44'0 0.0
2018-Feb-15 15:58N 45°34' W 122°44'0 0.0
2018-Feb-15 15:28N 45°34' W 122°44'0 0.0
2018-Feb-15 14:58N 45°34' W 122°44'0 0.0
2018-Feb-15 14:28N 45°34' W 122°44'0 0.0
2018-Feb-15 13:58N 45°34' W 122°44'0 0.0
2018-Feb-15 13:28N 45°34' W 122°44'0 0.0
2018-Feb-15 12:58N 45°34' W 122°44'0 0.0
2018-Feb-15 12:28N 45°34' W 122°44'0 0.0
2018-Feb-15 11:58N 45°34' W 122°44'0 0.0
2018-Feb-15 11:28N 45°34' W 122°44'0 0.0
2018-Feb-15 10:58N 45°34' W 122°44'0 0.0
2018-Feb-15 10:28N 45°34' W 122°44'0 0.0
2018-Feb-15 09:58N 45°34' W 122°44'0 0.0
2018-Feb-15 09:28N 45°34' W 122°44'0 0.0
2018-Feb-15 08:58N 45°34' W 122°44'0 0.0
2018-Feb-15 08:28N 45°34' W 122°44'0 0.0
2018-Feb-15 07:58N 45°34' W 122°44'0 0.0
2018-Feb-15 07:28N 45°34' W 122°44'0 0.0
2018-Feb-15 06:58N 45°34' W 122°44'0 0.0
2018-Feb-15 06:25N 45°34' W 122°44'0 0.0
2018-Feb-15 05:58N 45°34' W 122°44'0 0.0
2018-Feb-15 05:28N 45°34' W 122°44'0 0.0
2018-Feb-15 04:58N 45°34' W 122°44'0 0.0
2018-Feb-15 04:28N 45°34' W 122°44'0 0.0
2018-Feb-15 03:58N 45°34' W 122°44'0 0.0
2018-Feb-15 03:28N 45°34' W 122°44'0 0.0
2018-Feb-15 02:58N 45°34' W 122°44'0 0.0
2018-Feb-15 02:28N 45°34' W 122°44'0 0.0
2018-Feb-15 01:58N 45°34' W 122°44'0 0.0
2018-Feb-15 01:28N 45°34' W 122°44'0 0.0
2018-Feb-15 00:58N 45°34' W 122°44'0 0.0
2018-Feb-15 00:28N 45°34' W 122°44'0 0.0
2018-Feb-14 23:58N 45°34' W 122°44'0 0.0
2018-Feb-14 23:28N 45°34' W 122°44'0 0.0
2018-Feb-14 22:58N 45°34' W 122°44'0 0.0
2018-Feb-14 22:28N 45°34' W 122°44'0 0.0
2018-Feb-14 21:58N 45°34' W 122°44'0 0.0
2018-Feb-14 21:28N 45°34' W 122°44'0 0.0
2018-Feb-14 20:58N 45°34' W 122°44'0 0.0
2018-Feb-14 20:28N 45°34' W 122°44'0 0.0
2018-Feb-14 19:58N 45°34' W 122°44'0 0.0
2018-Feb-14 19:28N 45°34' W 122°44'0 0.0
2018-Feb-14 18:58N 45°34' W 122°44'0 0.0
2018-Feb-14 18:28N 45°34' W 122°44'0 0.0
2018-Feb-14 17:58N 45°34' W 122°44'0 0.0
2018-Feb-14 17:28N 45°34' W 122°44'0 0.0
2018-Feb-14 16:58N 45°34' W 122°44'0 0.0
2018-Feb-14 16:28N 45°34' W 122°44'0 0.0
2018-Feb-14 15:58N 45°34' W 122°44'0 0.0
2018-Feb-14 15:28N 45°34' W 122°44'0 0.0
2018-Feb-14 14:58N 45°34' W 122°44'0 0.0
2018-Feb-14 14:28N 45°34' W 122°44'0 0.0
2018-Feb-14 13:58N 45°34' W 122°44'0 0.0
2018-Feb-14 13:28N 45°34' W 122°44'0 0.0
2018-Feb-14 12:58N 45°34' W 122°44'0 0.0
2018-Feb-14 12:28N 45°34' W 122°44'0 0.0
2018-Feb-14 11:58N 45°34' W 122°44'0 0.0
2018-Feb-14 11:28N 45°34' W 122°44'0 0.0
2018-Feb-14 10:58N 45°34' W 122°44'0 0.0
2018-Feb-14 10:28N 45°34' W 122°44'0 0.0
2018-Feb-14 09:58N 45°34' W 122°44'0 0.0
2018-Feb-14 09:28N 45°34' W 122°44'0 0.0
2018-Feb-14 08:58N 45°34' W 122°44'0 0.0
2018-Feb-14 08:25N 45°34' W 122°44'0 0.0
2018-Feb-14 07:58N 45°34' W 122°44'0 0.0
2018-Feb-14 07:28N 45°34' W 122°44'0 0.0
2018-Feb-14 06:58N 45°34' W 122°44'0 0.0
2018-Feb-14 06:28N 45°34' W 122°44'0 0.0
2018-Feb-14 05:58N 45°34' W 122°44'0 0.0
2018-Feb-14 05:28N 45°34' W 122°44'0 0.0
2018-Feb-14 04:55N 45°34' W 122°44'0 0.0
2018-Feb-14 04:28N 45°34' W 122°44'0 0.0
2018-Feb-14 03:58N 45°34' W 122°44'0 0.0
2018-Feb-14 03:28N 45°34' W 122°44'0 0.0
2018-Feb-14 02:58N 45°34' W 122°44'0 0.0
2018-Feb-14 02:28N 45°34' W 122°44'0 0.0
2018-Feb-14 01:58N 45°34' W 122°44'0 0.0
2018-Feb-14 01:28N 45°34' W 122°44'0 0.0
2018-Feb-14 00:58N 45°34' W 122°44'0 0.0
2018-Feb-14 00:28N 45°34' W 122°44'0 0.0
2018-Feb-13 23:58N 45°34' W 122°44'0 0.0
2018-Feb-13 23:28N 45°34' W 122°44'0 0.0
2018-Feb-13 22:58N 45°34' W 122°44'0 0.0
2018-Feb-13 22:28N 45°34' W 122°44'0 0.0
2018-Feb-13 21:58N 45°34' W 122°44'0 0.0
2018-Feb-13 21:28N 45°34' W 122°44'0 0.1
2018-Feb-13 20:58N 45°34' W 122°43'0 0.1
2018-Feb-13 20:28N 45°34' W 122°44'0 0.0
2018-Feb-13 19:58N 45°34' W 122°44'0 0.0
2018-Feb-13 19:28N 45°34' W 122°44'0 0.0
2018-Feb-13 18:58N 45°34' W 122°44'0 0.0
2018-Feb-13 18:28N 45°34' W 122°44'0 0.0
2018-Feb-13 17:58N 45°34' W 122°44'0 0.0
2018-Feb-13 17:28N 45°34' W 122°44'0 0.0
2018-Feb-13 16:58N 45°34' W 122°44'0 0.0
2018-Feb-13 16:28N 45°34' W 122°44'0 0.0
2018-Feb-13 15:58N 45°34' W 122°44'0 0.0
2018-Feb-13 15:28N 45°34' W 122°44'0 0.0
2018-Feb-13 14:58N 45°34' W 122°44'0 0.0
2018-Feb-13 14:28N 45°34' W 122°44'0 0.0
2018-Feb-13 13:58N 45°34' W 122°44'0 0.0
2018-Feb-13 13:28N 45°34' W 122°44'0 0.0
2018-Feb-13 12:58N 45°34' W 122°44'0 0.0
2018-Feb-13 12:28N 45°34' W 122°44'0 0.0
2018-Feb-13 11:58N 45°34' W 122°44'0 0.0
2018-Feb-13 11:28N 45°34' W 122°44'0 0.0
2018-Feb-13 10:58N 45°34' W 122°44'0 0.0
2018-Feb-13 10:28N 45°34' W 122°44'0 0.0
2018-Feb-13 09:58N 45°34' W 122°44'0 0.0
2018-Feb-13 09:28N 45°34' W 122°44'0 0.0
2018-Feb-13 08:58N 45°34' W 122°44'0 0.0
2018-Feb-13 08:28N 45°34' W 122°44'0 0.0
2018-Feb-13 07:58N 45°34' W 122°44'0 0.0
2018-Feb-13 07:28N 45°34' W 122°44'0 0.0
2018-Feb-13 06:58N 45°34' W 122°44'0 0.0
2018-Feb-13 06:28N 45°34' W 122°44'0 0.0
2018-Feb-13 05:55N 45°34' W 122°44'0 0.0
2018-Feb-13 05:28N 45°34' W 122°44'0 0.0
2018-Feb-13 04:55N 45°34' W 122°44'0 0.0
2018-Feb-13 04:28N 45°34' W 122°44'0 0.0
2018-Feb-13 03:58N 45°34' W 122°44'0 0.0
2018-Feb-13 03:28N 45°34' W 122°44'0 0.0
2018-Feb-13 02:58N 45°34' W 122°44'0 0.0
2018-Feb-13 02:28N 45°34' W 122°44'0 0.0
2018-Feb-13 01:58N 45°34' W 122°44'0 0.0
2018-Feb-13 01:28N 45°34' W 122°44'0 0.0
2018-Feb-13 00:58N 45°34' W 122°44'0 0.0
2018-Feb-13 00:28N 45°34' W 122°44'0 0.0
2018-Feb-12 23:58N 45°34' W 122°44'0 0.0
2018-Feb-12 23:28N 45°34' W 122°44'0 0.0
2018-Feb-12 22:58N 45°34' W 122°44'0 0.0
2018-Feb-12 22:28N 45°34' W 122°44'0 0.0
2018-Feb-12 21:58N 45°34' W 122°44'0 0.0
2018-Feb-12 21:28N 45°34' W 122°44'0 0.0
2018-Feb-12 20:58N 45°34' W 122°44'0 0.0
2018-Feb-12 20:28N 45°34' W 122°44'0 0.0
2018-Feb-12 19:58N 45°34' W 122°44'0 0.0
2018-Feb-12 19:28N 45°34' W 122°44'0 0.0
2018-Feb-12 18:58N 45°34' W 122°44'0 0.0
2018-Feb-12 18:28N 45°34' W 122°44'0 0.0
2018-Feb-12 17:58N 45°34' W 122°44'0 0.4
2018-Feb-12 17:28N 45°34' W 122°43'0 0.7
2018-Feb-12 16:58N 45°34' W 122°43'0 0.0
2018-Feb-12 16:28N 45°34' W 122°43'0 0.0
2018-Feb-12 15:58N 45°34' W 122°43'0 0.0
2018-Feb-12 15:28N 45°34' W 122°43'0 0.0
2018-Feb-12 14:58N 45°34' W 122°43'0 0.0
2018-Feb-12 14:28N 45°34' W 122°43'0 0.0
2018-Feb-12 13:58N 45°34' W 122°43'0 0.0
2018-Feb-12 13:28N 45°34' W 122°43'0 0.0
2018-Feb-12 12:52N 45°34' W 122°43'0 0.0
2018-Feb-12 12:28N 45°34' W 122°43'0 0.0
2018-Feb-12 11:58N 45°34' W 122°43'0 0.0
2018-Feb-12 11:28N 45°34' W 122°43'0 0.0
2018-Feb-12 10:58N 45°34' W 122°43'0 0.0
2018-Feb-12 10:28N 45°34' W 122°43'0 0.0
2018-Feb-12 09:58N 45°34' W 122°43'0 0.0
2018-Feb-12 09:28N 45°34' W 122°43'0 0.0
2018-Feb-12 08:58N 45°34' W 122°43'0 0.0
2018-Feb-12 08:28N 45°34' W 122°43'0 0.0
2018-Feb-12 07:58N 45°34' W 122°43'0 0.0
2018-Feb-12 07:28N 45°34' W 122°43'0 0.0
2018-Feb-12 06:58N 45°34' W 122°43'0 0.0
2018-Feb-12 06:28N 45°34' W 122°43'0 0.0
2018-Feb-12 05:58N 45°34' W 122°43'0 0.0
2018-Feb-12 05:22N 45°34' W 122°43'0 0.0
2018-Feb-12 04:58N 45°34' W 122°43'0 0.0
2018-Feb-12 04:28N 45°34' W 122°43'0 0.0
2018-Feb-12 03:58N 45°34' W 122°43'0 0.0
2018-Feb-12 03:28N 45°34' W 122°43'0 0.0
2018-Feb-12 02:58N 45°34' W 122°43'0 0.0
2018-Feb-12 02:25N 45°34' W 122°43'0 0.0
2018-Feb-12 01:58N 45°34' W 122°43'0 0.0
2018-Feb-12 01:28N 45°34' W 122°43'0 0.0
2018-Feb-12 00:58N 45°34' W 122°43'0 0.0
2018-Feb-12 00:28N 45°34' W 122°43'0 0.0
2018-Feb-11 23:58N 45°34' W 122°43'0 0.0
2018-Feb-11 23:28N 45°34' W 122°43'0 0.0
2018-Feb-11 22:58N 45°34' W 122°43'0 0.0
2018-Feb-11 22:28N 45°34' W 122°43'0 0.0
2018-Feb-11 21:58N 45°34' W 122°43'0 0.0
2018-Feb-11 21:28N 45°34' W 122°43'0 0.0
2018-Feb-11 20:58N 45°34' W 122°43'0 0.0
2018-Feb-11 20:28N 45°34' W 122°43'0 0.0
2018-Feb-11 19:58N 45°34' W 122°43'0 0.0
2018-Feb-11 19:28N 45°34' W 122°43'0 0.0
2018-Feb-11 18:58N 45°34' W 122°43'0 0.0
2018-Feb-11 18:28N 45°34' W 122°43'0 0.0
2018-Feb-11 17:58N 45°34' W 122°43'0 0.0
2018-Feb-11 17:28N 45°34' W 122°43'0 0.0
2018-Feb-11 16:58N 45°34' W 122°43'0 0.0
2018-Feb-11 16:28N 45°34' W 122°43'0 0.0
2018-Feb-11 15:58N 45°34' W 122°43'0 0.0
2018-Feb-11 15:28N 45°34' W 122°43'0 0.0
2018-Feb-11 14:58N 45°34' W 122°43'0 0.0
2018-Feb-11 14:25N 45°34' W 122°43'0 0.0
2018-Feb-11 13:58N 45°34' W 122°43'0 0.0
2018-Feb-11 13:28N 45°34' W 122°43'0 0.0
2018-Feb-11 12:58N 45°34' W 122°43'0 0.0
2018-Feb-11 12:28N 45°34' W 122°43'0 0.0
2018-Feb-11 11:58N 45°34' W 122°43'0 0.0
2018-Feb-11 11:28N 45°34' W 122°43'0 0.0
2018-Feb-11 10:52N 45°34' W 122°43'0 0.0
2018-Feb-11 10:28N 45°34' W 122°43'0 0.0
2018-Feb-11 09:58N 45°34' W 122°43'0 0.0
2018-Feb-11 09:28N 45°34' W 122°43'0 0.0
2018-Feb-11 08:58N 45°34' W 122°43'0 0.0
2018-Feb-11 08:28N 45°34' W 122°43'0 0.0
2018-Feb-11 07:58N 45°34' W 122°43'0 0.0
2018-Feb-11 07:28N 45°34' W 122°43'0 0.0
2018-Feb-11 06:58N 45°34' W 122°43'0 0.0
2018-Feb-11 06:28N 45°34' W 122°43'0 0.0
2018-Feb-11 05:58N 45°34' W 122°43'0 0.0
2018-Feb-11 05:28N 45°34' W 122°43'0 0.0
2018-Feb-11 04:58N 45°34' W 122°43'0 0.0
2018-Feb-11 04:28N 45°34' W 122°43'0 0.0
2018-Feb-11 03:58N 45°34' W 122°43'0 0.0
2018-Feb-11 03:28N 45°34' W 122°43'0 0.0
2018-Feb-11 02:58N 45°34' W 122°43'0 0.0
2018-Feb-11 02:28N 45°34' W 122°43'0 0.0
2018-Feb-11 01:58N 45°34' W 122°43'0 0.0
2018-Feb-11 01:28N 45°34' W 122°43'0 0.0
2018-Feb-11 00:58N 45°34' W 122°43'0 0.0
2018-Feb-11 00:22N 45°34' W 122°43'0 0.0
2018-Feb-10 23:58N 45°34' W 122°43'0 0.0
2018-Feb-10 23:28N 45°34' W 122°43'0 0.0
2018-Feb-10 22:58N 45°34' W 122°43'0 0.0
2018-Feb-10 22:28N 45°34' W 122°43'0 0.0
2018-Feb-10 21:58N 45°34' W 122°43'0 0.0
2018-Feb-10 21:28N 45°34' W 122°43'0 0.0
2018-Feb-10 20:58N 45°34' W 122°43'0 0.0
2018-Feb-10 20:28N 45°34' W 122°43'0 0.0
2018-Feb-10 19:58N 45°34' W 122°43'0 0.0
2018-Feb-10 19:28N 45°34' W 122°43'0 0.0
2018-Feb-10 18:58N 45°34' W 122°43'0 0.0
2018-Feb-10 18:28N 45°34' W 122°43'0 0.0
2018-Feb-10 17:58N 45°34' W 122°43'0 0.0
2018-Feb-10 17:28N 45°34' W 122°43'0 0.0
2018-Feb-10 16:58N 45°34' W 122°43'0 0.0
2018-Feb-10 16:28N 45°34' W 122°43'0 0.0
2018-Feb-10 15:58N 45°34' W 122°43'0 0.0
2018-Feb-10 15:28N 45°34' W 122°43'0 0.0
2018-Feb-10 14:58N 45°34' W 122°43'0 0.0
2018-Feb-10 14:28N 45°34' W 122°43'0 0.0
2018-Feb-10 13:58N 45°34' W 122°43'0 0.0
2018-Feb-10 13:28N 45°34' W 122°43'0 0.0
2018-Feb-10 12:58N 45°34' W 122°43'0 0.0
2018-Feb-10 12:28N 45°34' W 122°43'0 0.0
2018-Feb-10 11:58N 45°34' W 122°43'0 0.0
2018-Feb-10 11:28N 45°34' W 122°43'0 0.0
2018-Feb-10 10:58N 45°34' W 122°43'0 0.0
2018-Feb-10 10:22N 45°34' W 122°43'0 0.0
2018-Feb-10 09:58N 45°34' W 122°43'0 0.0
2018-Feb-10 09:28N 45°34' W 122°43'0 0.0
2018-Feb-10 08:58N 45°34' W 122°43'0 0.0
2018-Feb-10 08:28N 45°34' W 122°43'0 0.0
2018-Feb-10 07:58N 45°34' W 122°43'0 0.0
2018-Feb-10 07:28N 45°34' W 122°43'0 0.0
2018-Feb-10 06:58N 45°34' W 122°43'0 0.0
2018-Feb-10 06:28N 45°34' W 122°43'0 0.0
2018-Feb-10 05:58N 45°34' W 122°43'0 0.0
2018-Feb-10 05:28N 45°34' W 122°43'0 0.0
2018-Feb-10 04:55N 45°34' W 122°43'0 0.0
2018-Feb-10 04:28N 45°34' W 122°43'0 0.0
2018-Feb-10 03:58N 45°34' W 122°43'0 0.0
2018-Feb-10 03:28N 45°34' W 122°43'0 0.0
2018-Feb-10 02:58N 45°34' W 122°43'0 0.0
2018-Feb-10 02:28N 45°34' W 122°43'0 0.0
2018-Feb-10 01:58N 45°34' W 122°43'  
Track history (hours):
 
Tides and Currents Weather Stations Pressure Air Temp Water Temp Dewpoint Dewpoint Depression Visibility Wind Speed Wind Dir Waves Ship Positions

Alaskan Frontier

Owner: ALASKA TANKER COMPANY, Beaverton, OR. More information available from US FCC via Universal Licensing System and Coast Guard Vessel Documentation Center.

Last reported at 2018-Feb-20 01:54 UTC. Time now 2018-Feb-20 02:10 UTC.
Position N 46°12' W 125°35'.

Type: Tanker. MMSI: 366948190.

Date/timePositionNaut miles runAvg speedWind from/ knotsBaromVisibWave heightAir tempDewpointWater temp
2018-Feb-20 01:54N 46°12' W 125°35'614.3
2018-Feb-20 01:31N 46°12' W 125°27'714.4
2018-Feb-20 01:01N 46°12' W 125°16'714.1
2018-Feb-20 00:30N 46°12' W 125°06'713.7
2018-Feb-20 00:00N 46°12' W 124°56'713.4
2018-Feb-19 23:30N 46°12' W 124°46'713.5
2018-Feb-19 23:00N 46°12' W 124°37'713.4
2018-Feb-19 22:31N 46°12' W 124°27'713.9
2018-Feb-19 22:00N 46°11' W 124°17'5 9.9
2018-Feb-19 21:30N 46°10' W 124°10'4 7.5
2018-Feb-19 21:00N 46°13' W 124°08'510.1
2018-Feb-19 20:31N 46°15' W 124°01'611.9
2018-Feb-19 20:01N 46°11' W 123°54'10 9.7
2018-Feb-19 18:58N 46°15' W 123°41'1012.8
2018-Feb-19 18:10N 46°14' W 123°26'214.8
2018-Feb-19 18:01N 46°12' W 123°26'510.7
2018-Feb-19 17:31N 46°09' W 123°20'815.2
2018-Feb-19 17:00N 46°11' W 123°10'714.2
2018-Feb-19 16:30N 46°08' W 123°01'510.3
2018-Feb-19 15:59N 46°05' W 122°54'5 9.9
2018-Feb-19 15:28N 46°00' W 122°51'510.8
2018-Feb-19 15:00N 45°56' W 122°48'611.1
2018-Feb-19 14:31N 45°50' W 122°47'612.5
2018-Feb-19 14:00N 45°44' W 122°46'611.4
2018-Feb-19 13:31N 45°39' W 122°47'3 6.3
2018-Feb-19 13:00N 45°35' W 122°46'2 2.1
2018-Feb-19 11:52N 45°34' W 122°44'0 0.0
2018-Feb-19 10:46N 45°34' W 122°44'0 0.0
2018-Feb-19 10:28N 45°34' W 122°44'0 0.0
2018-Feb-19 09:58N 45°34' W 122°44'0 0.0
2018-Feb-19 09:04N 45°34' W 122°44'0 0.1
2018-Feb-19 08:58N 45°34' W 122°44'0 0.0
2018-Feb-19 08:25N 45°34' W 122°44'0 0.0
2018-Feb-19 07:40N 45°34' W 122°44'0 0.0
2018-Feb-19 07:19N 45°34' W 122°44'0 0.0
2018-Feb-19 06:55N 45°34' W 122°44'0 0.0
2018-Feb-19 06:28N 45°34' W 122°44'0 0.0
2018-Feb-19 05:58N 45°34' W 122°44'0 0.0
2018-Feb-19 05:16N 45°34' W 122°44'0 0.0
2018-Feb-19 04:49N 45°34' W 122°44'0 0.0
2018-Feb-19 04:28N 45°34' W 122°44'0 0.0
2018-Feb-19 03:55N 45°34' W 122°44'0 0.0
2018-Feb-19 03:28N 45°34' W 122°44'0 0.0
2018-Feb-19 02:58N 45°34' W 122°44'0 0.0
2018-Feb-19 02:25N 45°34' W 122°44'0 0.0
2018-Feb-19 01:58N 45°34' W 122°44'0 0.0
2018-Feb-19 01:28N 45°34' W 122°44'0 0.0
2018-Feb-19 00:52N 45°34' W 122°44'0 0.0
2018-Feb-19 00:28N 45°34' W 122°44'0 0.0
2018-Feb-18 23:58N 45°34' W 122°44'0 0.0
2018-Feb-18 23:25N 45°34' W 122°44'0 0.0
2018-Feb-18 22:58N 45°34' W 122°44'0 0.0
2018-Feb-18 22:28N 45°34' W 122°44'0 0.0
2018-Feb-18 21:55N 45°34' W 122°44'0 0.0
2018-Feb-18 21:25N 45°34' W 122°44'0 0.0
2018-Feb-18 20:55N 45°34' W 122°44'0 0.0
2018-Feb-18 20:28N 45°34' W 122°44'0 0.0
2018-Feb-18 19:55N 45°34' W 122°44'0 0.0
2018-Feb-18 19:28N 45°34' W 122°44'0 0.0
2018-Feb-18 18:58N 45°34' W 122°44'0 0.0
2018-Feb-18 18:28N 45°34' W 122°44'0 0.0
2018-Feb-18 17:55N 45°34' W 122°44'0 0.0
2018-Feb-18 17:28N 45°34' W 122°44'0 0.0
2018-Feb-18 16:52N 45°34' W 122°44'0 0.0
2018-Feb-18 16:28N 45°34' W 122°44'0 0.0
2018-Feb-18 15:46N 45°34' W 122°44'0 0.0
2018-Feb-18 15:28N 45°34' W 122°44'0 0.0
2018-Feb-18 14:55N 45°34' W 122°44'0 0.0
2018-Feb-18 14:28N 45°34' W 122°44'0 0.0
2018-Feb-18 13:55N 45°34' W 122°44'0 0.0
2018-Feb-18 13:22N 45°34' W 122°44'0 0.0
2018-Feb-18 12:58N 45°34' W 122°44'0 0.0
2018-Feb-18 12:19N 45°34' W 122°44'0 0.0
2018-Feb-18 11:58N 45°34' W 122°44'0 0.0
2018-Feb-18 11:28N 45°34' W 122°44'0 0.0
2018-Feb-18 10:55N 45°34' W 122°44'0 0.0
2018-Feb-18 10:10N 45°34' W 122°44'0 0.0
2018-Feb-18 09:43N 45°34' W 122°44'0 0.0
2018-Feb-18 09:28N 45°34' W 122°44'0 0.0
2018-Feb-18 08:58N 45°34' W 122°44'0 0.0
2018-Feb-18 08:28N 45°34' W 122°44'0 0.0
2018-Feb-18 07:55N 45°34' W 122°44'0 0.0
2018-Feb-18 07:19N 45°34' W 122°44'0 0.0
2018-Feb-18 06:52N 45°34' W 122°44'0 0.0
2018-Feb-18 06:25N 45°34' W 122°44'0 0.0
2018-Feb-18 05:58N 45°34' W 122°44'0 0.0
2018-Feb-18 05:28N 45°34' W 122°44'0 0.0
2018-Feb-18 04:55N 45°34' W 122°44'0 0.0
2018-Feb-18 04:28N 45°34' W 122°44'0 0.0
2018-Feb-18 03:58N 45°34' W 122°44'0 0.0
2018-Feb-18 03:22N 45°34' W 122°44'0 0.0
2018-Feb-18 02:58N 45°34' W 122°44'0 0.0
2018-Feb-18 02:28N 45°34' W 122°44'0 0.0
2018-Feb-18 01:55N 45°34' W 122°44'0 0.0
2018-Feb-18 01:22N 45°34' W 122°44'0 0.0
2018-Feb-18 00:55N 45°34' W 122°44'0 0.0
2018-Feb-18 00:10N 45°34' W 122°44'0 0.0
2018-Feb-17 23:46N 45°34' W 122°44'0 0.0
2018-Feb-17 23:25N 45°34' W 122°44'0 0.0
2018-Feb-17 22:58N 45°34' W 122°44'0 0.0
2018-Feb-17 22:28N 45°34' W 122°44'0 0.0
2018-Feb-17 21:58N 45°34' W 122°44'0 0.0
2018-Feb-17 21:28N 45°34' W 122°44'0 0.0
2018-Feb-17 20:58N 45°34' W 122°44'0 0.0
2018-Feb-17 20:28N 45°34' W 122°44'0 0.0
2018-Feb-17 19:58N 45°34' W 122°44'0 0.0
2018-Feb-17 19:28N 45°34' W 122°44'0 0.0
2018-Feb-17 18:58N 45°34' W 122°44'0 0.0
2018-Feb-17 18:28N 45°34' W 122°44'0 0.0
2018-Feb-17 17:58N 45°34' W 122°44'0 0.0
2018-Feb-17 17:28N 45°34' W 122°44'0 0.0
2018-Feb-17 16:58N 45°34' W 122°44'0 0.0
2018-Feb-17 16:28N 45°34' W 122°44'0 0.0
2018-Feb-17 15:58N 45°34' W 122°44'0 0.0
2018-Feb-17 15:28N 45°34' W 122°44'0 0.0
2018-Feb-17 14:58N 45°34' W 122°44'0 0.0
2018-Feb-17 14:28N 45°34' W 122°44'0 0.0
2018-Feb-17 13:58N 45°34' W 122°44'0 0.0
2018-Feb-17 13:28N 45°34' W 122°44'0 0.0
2018-Feb-17 12:58N 45°34' W 122°44'0 0.0
2018-Feb-17 12:28N 45°34' W 122°44'0 0.0
2018-Feb-17 11:58N 45°34' W 122°44'0 0.0
2018-Feb-17 11:28N 45°34' W 122°44'0 0.0
2018-Feb-17 10:58N 45°34' W 122°44'0 0.0
2018-Feb-17 10:28N 45°34' W 122°44'0 0.0
2018-Feb-17 09:58N 45°34' W 122°44'0 0.0
2018-Feb-17 09:28N 45°34' W 122°44'0 0.0
2018-Feb-17 08:58N 45°34' W 122°44'0 0.0
2018-Feb-17 08:28N 45°34' W 122°44'0 0.0
2018-Feb-17 07:58N 45°34' W 122°44'0 0.0
2018-Feb-17 07:28N 45°34' W 122°44'0 0.0
2018-Feb-17 06:58N 45°34' W 122°44'0 0.0
2018-Feb-17 06:25N 45°34' W 122°44'0 0.0
2018-Feb-17 05:58N 45°34' W 122°44'0 0.0
2018-Feb-17 05:28N 45°34' W 122°44'0 0.0
2018-Feb-17 04:58N 45°34' W 122°44'0 0.0
2018-Feb-17 04:28N 45°34' W 122°44'0 0.0
2018-Feb-17 03:58N 45°34' W 122°44'0 0.0
2018-Feb-17 03:28N 45°34' W 122°44'0 0.0
2018-Feb-17 02:58N 45°34' W 122°44'0 0.0
2018-Feb-17 02:28N 45°34' W 122°44'0 0.0
2018-Feb-17 01:58N 45°34' W 122°44'0 0.0
2018-Feb-17 01:28N 45°34' W 122°44'0 0.0
2018-Feb-17 00:58N 45°34' W 122°44'0 0.0
2018-Feb-17 00:28N 45°34' W 122°44'0 0.0
2018-Feb-16 23:58N 45°34' W 122°44'0 0.0
2018-Feb-16 23:28N 45°34' W 122°44'0 0.0
2018-Feb-16 22:58N 45°34' W 122°44'0 0.0
2018-Feb-16 22:28N 45°34' W 122°44'0 0.0
2018-Feb-16 21:58N 45°34' W 122°44'0 0.0
2018-Feb-16 21:28N 45°34' W 122°44'0 0.0
2018-Feb-16 20:58N 45°34' W 122°44'0 0.0
2018-Feb-16 20:28N 45°34' W 122°44'0 0.0
2018-Feb-16 19:58N 45°34' W 122°44'0 0.0
2018-Feb-16 19:28N 45°34' W 122°44'0 0.0
2018-Feb-16 18:58N 45°34' W 122°44'0 0.0
2018-Feb-16 18:28N 45°34' W 122°44'0 0.0
2018-Feb-16 17:58N 45°34' W 122°44'0 0.0
2018-Feb-16 17:28N 45°34' W 122°44'0 0.0
2018-Feb-16 16:58N 45°34' W 122°44'0 0.0
2018-Feb-16 16:25N 45°34' W 122°44'0 0.0
2018-Feb-16 15:58N 45°34' W 122°44'0 0.0
2018-Feb-16 15:28N 45°34' W 122°44'0 0.0
2018-Feb-16 14:58N 45°34' W 122°44'0 0.0
2018-Feb-16 14:28N 45°34' W 122°44'0 0.0
2018-Feb-16 13:58N 45°34' W 122°44'0 0.0
2018-Feb-16 13:28N 45°34' W 122°44'0 0.0
2018-Feb-16 12:58N 45°34' W 122°44'0 0.0
2018-Feb-16 12:28N 45°34' W 122°44'0 0.0
2018-Feb-16 11:58N 45°34' W 122°44'0 0.0
2018-Feb-16 11:28N 45°34' W 122°44'0 0.0
2018-Feb-16 10:58N 45°34' W 122°44'0 0.0
2018-Feb-16 10:28N 45°34' W 122°44'0 0.0
2018-Feb-16 09:58N 45°34' W 122°44'0 0.0
2018-Feb-16 09:25N 45°34' W 122°44'0 0.0
2018-Feb-16 08:58N 45°34' W 122°44'0 0.0
2018-Feb-16 08:28N 45°34' W 122°44'0 0.0
2018-Feb-16 07:58N 45°34' W 122°44'0 0.0
2018-Feb-16 07:28N 45°34' W 122°44'0 0.0
2018-Feb-16 06:58N 45°34' W 122°44'0 0.0
2018-Feb-16 06:28N 45°34' W 122°44'0 0.0
2018-Feb-16 05:58N 45°34' W 122°44'0 0.0
2018-Feb-16 05:28N 45°34' W 122°44'0 0.0
2018-Feb-16 04:58N 45°34' W 122°44'0 0.0
2018-Feb-16 04:28N 45°34' W 122°44'0 0.0
2018-Feb-16 03:58N 45°34' W 122°44'0 0.0
2018-Feb-16 03:28N 45°34' W 122°44'0 0.0
2018-Feb-16 02:58N 45°34' W 122°44'0 0.0
2018-Feb-16 02:28N 45°34' W 122°44'0 0.0
2018-Feb-16 01:58N 45°34' W 122°44'0 0.0
2018-Feb-16 01:28N 45°34' W 122°44'0 0.0
2018-Feb-16 00:58N 45°34' W 122°44'0 0.0
2018-Feb-16 00:28N 45°34' W 122°44'0 0.0
2018-Feb-15 23:58N 45°34' W 122°44'0 0.0
2018-Feb-15 23:28N 45°34' W 122°44'0 0.0
2018-Feb-15 22:58N 45°34' W 122°44'0 0.0
2018-Feb-15 22:28N 45°34' W 122°44'0 0.0
2018-Feb-15 21:58N 45°34' W 122°44'0 0.0
2018-Feb-15 21:28N 45°34' W 122°44'0 0.0
2018-Feb-15 20:58N 45°34' W 122°44'0 0.0
2018-Feb-15 20:28N 45°34' W 122°44'0 0.0
2018-Feb-15 19:58N 45°34' W 122°44'0 0.0
2018-Feb-15 19:28N 45°34' W 122°44'0 0.0
2018-Feb-15 18:58N 45°34' W 122°44'0 0.0
2018-Feb-15 18:28N 45°34' W 122°44'0 0.0
2018-Feb-15 17:58N 45°34' W 122°44'0 0.0
2018-Feb-15 17:28N 45°34' W 122°44'0 0.0
2018-Feb-15 16:58N 45°34' W 122°44'0 0.0
2018-Feb-15 16:28N 45°34' W 122°44'0 0.0
2018-Feb-15 15:58N 45°34' W 122°44'0 0.0
2018-Feb-15 15:28N 45°34' W 122°44'0 0.0
2018-Feb-15 14:58N 45°34' W 122°44'0 0.0
2018-Feb-15 14:28N 45°34' W 122°44'0 0.0
2018-Feb-15 13:58N 45°34' W 122°44'0 0.0
2018-Feb-15 13:28N 45°34' W 122°44'0 0.0
2018-Feb-15 12:58N 45°34' W 122°44'0 0.0
2018-Feb-15 12:28N 45°34' W 122°44'0 0.0
2018-Feb-15 11:58N 45°34' W 122°44'0 0.0
2018-Feb-15 11:28N 45°34' W 122°44'0 0.0
2018-Feb-15 10:58N 45°34' W 122°44'0 0.0
2018-Feb-15 10:28N 45°34' W 122°44'0 0.0
2018-Feb-15 09:58N 45°34' W 122°44'0 0.0
2018-Feb-15 09:28N 45°34' W 122°44'0 0.0
2018-Feb-15 08:58N 45°34' W 122°44'0 0.0
2018-Feb-15 08:28N 45°34' W 122°44'0 0.0
2018-Feb-15 07:58N 45°34' W 122°44'0 0.0
2018-Feb-15 07:28N 45°34' W 122°44'0 0.0
2018-Feb-15 06:58N 45°34' W 122°44'0 0.0
2018-Feb-15 06:25N 45°34' W 122°44'0 0.0
2018-Feb-15 05:58N 45°34' W 122°44'0 0.0
2018-Feb-15 05:28N 45°34' W 122°44'0 0.0
2018-Feb-15 04:58N 45°34' W 122°44'0 0.0
2018-Feb-15 04:28N 45°34' W 122°44'0 0.0
2018-Feb-15 03:58N 45°34' W 122°44'0 0.0
2018-Feb-15 03:28N 45°34' W 122°44'0 0.0
2018-Feb-15 02:58N 45°34' W 122°44'0 0.0
2018-Feb-15 02:28N 45°34' W 122°44'0 0.0
2018-Feb-15 01:58N 45°34' W 122°44'0 0.0
2018-Feb-15 01:28N 45°34' W 122°44'0 0.0
2018-Feb-15 00:58N 45°34' W 122°44'0 0.0
2018-Feb-15 00:28N 45°34' W 122°44'0 0.0
2018-Feb-14 23:58N 45°34' W 122°44'0 0.0
2018-Feb-14 23:28N 45°34' W 122°44'0 0.0
2018-Feb-14 22:58N 45°34' W 122°44'0 0.0
2018-Feb-14 22:28N 45°34' W 122°44'0 0.0
2018-Feb-14 21:58N 45°34' W 122°44'0 0.0
2018-Feb-14 21:28N 45°34' W 122°44'0 0.0
2018-Feb-14 20:58N 45°34' W 122°44'0 0.0
2018-Feb-14 20:28N 45°34' W 122°44'0 0.0
2018-Feb-14 19:58N 45°34' W 122°44'0 0.0
2018-Feb-14 19:28N 45°34' W 122°44'0 0.0
2018-Feb-14 18:58N 45°34' W 122°44'0 0.0
2018-Feb-14 18:28N 45°34' W 122°44'0 0.0
2018-Feb-14 17:58N 45°34' W 122°44'0 0.0
2018-Feb-14 17:28N 45°34' W 122°44'0 0.0
2018-Feb-14 16:58N 45°34' W 122°44'0 0.0
2018-Feb-14 16:28N 45°34' W 122°44'0 0.0
2018-Feb-14 15:58N 45°34' W 122°44'0 0.0
2018-Feb-14 15:28N 45°34' W 122°44'0 0.0
2018-Feb-14 14:58N 45°34' W 122°44'0 0.0
2018-Feb-14 14:28N 45°34' W 122°44'0 0.0
2018-Feb-14 13:58N 45°34' W 122°44'0 0.0
2018-Feb-14 13:28N 45°34' W 122°44'0 0.0
2018-Feb-14 12:58N 45°34' W 122°44'0 0.0
2018-Feb-14 12:28N 45°34' W 122°44'0 0.0
2018-Feb-14 11:58N 45°34' W 122°44'0 0.0
2018-Feb-14 11:28N 45°34' W 122°44'0 0.0
2018-Feb-14 10:58N 45°34' W 122°44'0 0.0
2018-Feb-14 10:28N 45°34' W 122°44'0 0.0
2018-Feb-14 09:58N 45°34' W 122°44'0 0.0
2018-Feb-14 09:28N 45°34' W 122°44'0 0.0
2018-Feb-14 08:58N 45°34' W 122°44'0 0.0
2018-Feb-14 08:25N 45°34' W 122°44'0 0.0
2018-Feb-14 07:58N 45°34' W 122°44'0 0.0
2018-Feb-14 07:28N 45°34' W 122°44'0 0.0
2018-Feb-14 06:58N 45°34' W 122°44'0 0.0
2018-Feb-14 06:28N 45°34' W 122°44'0 0.0
2018-Feb-14 05:58N 45°34' W 122°44'0 0.0
2018-Feb-14 05:28N 45°34' W 122°44'0 0.0
2018-Feb-14 04:55N 45°34' W 122°44'0 0.0
2018-Feb-14 04:28N 45°34' W 122°44'0 0.0
2018-Feb-14 03:58N 45°34' W 122°44'0 0.0
2018-Feb-14 03:28N 45°34' W 122°44'0 0.0
2018-Feb-14 02:58N 45°34' W 122°44'0 0.0
2018-Feb-14 02:28N 45°34' W 122°44'0 0.0
2018-Feb-14 01:58N 45°34' W 122°44'0 0.0
2018-Feb-14 01:28N 45°34' W 122°44'0 0.0
2018-Feb-14 00:58N 45°34' W 122°44'0 0.0
2018-Feb-14 00:28N 45°34' W 122°44'0 0.0
2018-Feb-13 23:58N 45°34' W 122°44'0 0.0
2018-Feb-13 23:28N 45°34' W 122°44'0 0.0
2018-Feb-13 22:58N 45°34' W 122°44'0 0.0
2018-Feb-13 22:28N 45°34' W 122°44'0 0.0
2018-Feb-13 21:58N 45°34' W 122°44'0 0.0
2018-Feb-13 21:28N 45°34' W 122°44'0 0.1
2018-Feb-13 20:58N 45°34' W 122°43'0 0.1
2018-Feb-13 20:28N 45°34' W 122°44'0 0.0
2018-Feb-13 19:58N 45°34' W 122°44'0 0.0
2018-Feb-13 19:28N 45°34' W 122°44'0 0.0
2018-Feb-13 18:58N 45°34' W 122°44'0 0.0
2018-Feb-13 18:28N 45°34' W 122°44'0 0.0
2018-Feb-13 17:58N 45°34' W 122°44'0 0.0
2018-Feb-13 17:28N 45°34' W 122°44'0 0.0
2018-Feb-13 16:58N 45°34' W 122°44'0 0.0
2018-Feb-13 16:28N 45°34' W 122°44'0 0.0
2018-Feb-13 15:58N 45°34' W 122°44'0 0.0
2018-Feb-13 15:28N 45°34' W 122°44'0 0.0
2018-Feb-13 14:58N 45°34' W 122°44'0 0.0
2018-Feb-13 14:28N 45°34' W 122°44'0 0.0
2018-Feb-13 13:58N 45°34' W 122°44'0 0.0
2018-Feb-13 13:28N 45°34' W 122°44'0 0.0
2018-Feb-13 12:58N 45°34' W 122°44'0 0.0
2018-Feb-13 12:28N 45°34' W 122°44'0 0.0
2018-Feb-13 11:58N 45°34' W 122°44'0 0.0
2018-Feb-13 11:28N 45°34' W 122°44'0 0.0
2018-Feb-13 10:58N 45°34' W 122°44'0 0.0
2018-Feb-13 10:28N 45°34' W 122°44'0 0.0
2018-Feb-13 09:58N 45°34' W 122°44'0 0.0
2018-Feb-13 09:28N 45°34' W 122°44'0 0.0
2018-Feb-13 08:58N 45°34' W 122°44'0 0.0
2018-Feb-13 08:28N 45°34' W 122°44'0 0.0
2018-Feb-13 07:58N 45°34' W 122°44'0 0.0
2018-Feb-13 07:28N 45°34' W 122°44'0 0.0
2018-Feb-13 06:58N 45°34' W 122°44'0 0.0
2018-Feb-13 06:28N 45°34' W 122°44'0 0.0
2018-Feb-13 05:55N 45°34' W 122°44'0 0.0
2018-Feb-13 05:28N 45°34' W 122°44'0 0.0
2018-Feb-13 04:55N 45°34' W 122°44'0 0.0
2018-Feb-13 04:28N 45°34' W 122°44'0 0.0
2018-Feb-13 03:58N 45°34' W 122°44'0 0.0
2018-Feb-13 03:28N 45°34' W 122°44'0 0.0
2018-Feb-13 02:58N 45°34' W 122°44'0 0.0
2018-Feb-13 02:28N 45°34' W 122°44'0 0.0
2018-Feb-13 01:58N 45°34' W 122°44'0 0.0
2018-Feb-13 01:28N 45°34' W 122°44'0 0.0
2018-Feb-13 00:58N 45°34' W 122°44'0 0.0
2018-Feb-13 00:28N 45°34' W 122°44'0 0.0
2018-Feb-12 23:58N 45°34' W 122°44'0 0.0
2018-Feb-12 23:28N 45°34' W 122°44'0 0.0
2018-Feb-12 22:58N 45°34' W 122°44'0 0.0
2018-Feb-12 22:28N 45°34' W 122°44'0 0.0
2018-Feb-12 21:58N 45°34' W 122°44'0 0.0
2018-Feb-12 21:28N 45°34' W 122°44'0 0.0
2018-Feb-12 20:58N 45°34' W 122°44'0 0.0
2018-Feb-12 20:28N 45°34' W 122°44'0 0.0
2018-Feb-12 19:58N 45°34' W 122°44'0 0.0
2018-Feb-12 19:28N 45°34' W 122°44'0 0.0
2018-Feb-12 18:58N 45°34' W 122°44'0 0.0
2018-Feb-12 18:28N 45°34' W 122°44'0 0.0
2018-Feb-12 17:58N 45°34' W 122°44'0 0.4
2018-Feb-12 17:28N 45°34' W 122°43'0 0.7
2018-Feb-12 16:58N 45°34' W 122°43'0 0.0
2018-Feb-12 16:28N 45°34' W 122°43'0 0.0
2018-Feb-12 15:58N 45°34' W 122°43'0 0.0
2018-Feb-12 15:28N 45°34' W 122°43'0 0.0
2018-Feb-12 14:58N 45°34' W 122°43'0 0.0
2018-Feb-12 14:28N 45°34' W 122°43'0 0.0
2018-Feb-12 13:58N 45°34' W 122°43'0 0.0
2018-Feb-12 13:28N 45°34' W 122°43'0 0.0
2018-Feb-12 12:52N 45°34' W 122°43'0 0.0
2018-Feb-12 12:28N 45°34' W 122°43'0 0.0
2018-Feb-12 11:58N 45°34' W 122°43'0 0.0
2018-Feb-12 11:28N 45°34' W 122°43'0 0.0
2018-Feb-12 10:58N 45°34' W 122°43'0 0.0
2018-Feb-12 10:28N 45°34' W 122°43'0 0.0
2018-Feb-12 09:58N 45°34' W 122°43'0 0.0
2018-Feb-12 09:28N 45°34' W 122°43'0 0.0
2018-Feb-12 08:58N 45°34' W 122°43'0 0.0
2018-Feb-12 08:28N 45°34' W 122°43'0 0.0
2018-Feb-12 07:58N 45°34' W 122°43'0 0.0
2018-Feb-12 07:28N 45°34' W 122°43'0 0.0
2018-Feb-12 06:58N 45°34' W 122°43'0 0.0
2018-Feb-12 06:28N 45°34' W 122°43'0 0.0
2018-Feb-12 05:58N 45°34' W 122°43'0 0.0
2018-Feb-12 05:22N 45°34' W 122°43'0 0.0
2018-Feb-12 04:58N 45°34' W 122°43'0 0.0
2018-Feb-12 04:28N 45°34' W 122°43'0 0.0
2018-Feb-12 03:58N 45°34' W 122°43'0 0.0
2018-Feb-12 03:28N 45°34' W 122°43'0 0.0
2018-Feb-12 02:58N 45°34' W 122°43'0 0.0
2018-Feb-12 02:25N 45°34' W 122°43'0 0.0
2018-Feb-12 01:58N 45°34' W 122°43'0 0.0
2018-Feb-12 01:28N 45°34' W 122°43'0 0.0
2018-Feb-12 00:58N 45°34' W 122°43'0 0.0
2018-Feb-12 00:28N 45°34' W 122°43'0 0.0
2018-Feb-11 23:58N 45°34' W 122°43'0 0.0
2018-Feb-11 23:28N 45°34' W 122°43'0 0.0
2018-Feb-11 22:58N 45°34' W 122°43'0 0.0
2018-Feb-11 22:28N 45°34' W 122°43'0 0.0
2018-Feb-11 21:58N 45°34' W 122°43'0 0.0
2018-Feb-11 21:28N 45°34' W 122°43'0 0.0
2018-Feb-11 20:58N 45°34' W 122°43'0 0.0
2018-Feb-11 20:28N 45°34' W 122°43'0 0.0
2018-Feb-11 19:58N 45°34' W 122°43'0 0.0
2018-Feb-11 19:28N 45°34' W 122°43'0 0.0
2018-Feb-11 18:58N 45°34' W 122°43'0 0.0
2018-Feb-11 18:28N 45°34' W 122°43'0 0.0
2018-Feb-11 17:58N 45°34' W 122°43'0 0.0
2018-Feb-11 17:28N 45°34' W 122°43'0 0.0
2018-Feb-11 16:58N 45°34' W 122°43'0 0.0
2018-Feb-11 16:28N 45°34' W 122°43'0 0.0
2018-Feb-11 15:58N 45°34' W 122°43'0 0.0
2018-Feb-11 15:28N 45°34' W 122°43'0 0.0
2018-Feb-11 14:58N 45°34' W 122°43'0 0.0
2018-Feb-11 14:25N 45°34' W 122°43'0 0.0
2018-Feb-11 13:58N 45°34' W 122°43'0 0.0
2018-Feb-11 13:28N 45°34' W 122°43'0 0.0
2018-Feb-11 12:58N 45°34' W 122°43'0 0.0
2018-Feb-11 12:28N 45°34' W 122°43'0 0.0
2018-Feb-11 11:58N 45°34' W 122°43'0 0.0
2018-Feb-11 11:28N 45°34' W 122°43'0 0.0
2018-Feb-11 10:52N 45°34' W 122°43'0 0.0
2018-Feb-11 10:28N 45°34' W 122°43'0 0.0
2018-Feb-11 09:58N 45°34' W 122°43'0 0.0
2018-Feb-11 09:28N 45°34' W 122°43'0 0.0
2018-Feb-11 08:58N 45°34' W 122°43'0 0.0
2018-Feb-11 08:28N 45°34' W 122°43'0 0.0
2018-Feb-11 07:58N 45°34' W 122°43'0 0.0
2018-Feb-11 07:28N 45°34' W 122°43'0 0.0
2018-Feb-11 06:58N 45°34' W 122°43'0 0.0
2018-Feb-11 06:28N 45°34' W 122°43'0 0.0
2018-Feb-11 05:58N 45°34' W 122°43'0 0.0
2018-Feb-11 05:28N 45°34' W 122°43'0 0.0
2018-Feb-11 04:58N 45°34' W 122°43'0 0.0
2018-Feb-11 04:28N 45°34' W 122°43'0 0.0
2018-Feb-11 03:58N 45°34' W 122°43'0 0.0
2018-Feb-11 03:28N 45°34' W 122°43'0 0.0
2018-Feb-11 02:58N 45°34' W 122°43'0 0.0
2018-Feb-11 02:28N 45°34' W 122°43'0 0.0
2018-Feb-11 01:58N 45°34' W 122°43'0 0.0
2018-Feb-11 01:28N 45°34' W 122°43'0 0.0
2018-Feb-11 00:58N 45°34' W 122°43'0 0.0
2018-Feb-11 00:22N 45°34' W 122°43'0 0.0
2018-Feb-10 23:58N 45°34' W 122°43'0 0.0
2018-Feb-10 23:28N 45°34' W 122°43'0 0.0
2018-Feb-10 22:58N 45°34' W 122°43'0 0.0
2018-Feb-10 22:28N 45°34' W 122°43'0 0.0
2018-Feb-10 21:58N 45°34' W 122°43'0 0.0
2018-Feb-10 21:28N 45°34' W 122°43'0 0.0
2018-Feb-10 20:58N 45°34' W 122°43'0 0.0
2018-Feb-10 20:28N 45°34' W 122°43'0 0.0
2018-Feb-10 19:58N 45°34' W 122°43'0 0.0
2018-Feb-10 19:28N 45°34' W 122°43'0 0.0
2018-Feb-10 18:58N 45°34' W 122°43'0 0.0
2018-Feb-10 18:28N 45°34' W 122°43'0 0.0
2018-Feb-10 17:58N 45°34' W 122°43'0 0.0
2018-Feb-10 17:28N 45°34' W 122°43'0 0.0
2018-Feb-10 16:58N 45°34' W 122°43'0 0.0
2018-Feb-10 16:28N 45°34' W 122°43'0 0.0
2018-Feb-10 15:58N 45°34' W 122°43'0 0.0
2018-Feb-10 15:28N 45°34' W 122°43'0 0.0
2018-Feb-10 14:58N 45°34' W 122°43'0 0.0
2018-Feb-10 14:28N 45°34' W 122°43'0 0.0
2018-Feb-10 13:58N 45°34' W 122°43'0 0.0
2018-Feb-10 13:28N 45°34' W 122°43'0 0.0
2018-Feb-10 12:58N 45°34' W 122°43'0 0.0
2018-Feb-10 12:28N 45°34' W 122°43'0 0.0
2018-Feb-10 11:58N 45°34' W 122°43'0 0.0
2018-Feb-10 11:28N 45°34' W 122°43'0 0.0
2018-Feb-10 10:58N 45°34' W 122°43'0 0.0
2018-Feb-10 10:22N 45°34' W 122°43'0 0.0
2018-Feb-10 09:58N 45°34' W 122°43'0 0.0
2018-Feb-10 09:28N 45°34' W 122°43'0 0.0
2018-Feb-10 08:58N 45°34' W 122°43'0 0.0
2018-Feb-10 08:28N 45°34' W 122°43'0 0.0
2018-Feb-10 07:58N 45°34' W 122°43'0 0.0
2018-Feb-10 07:28N 45°34' W 122°43'0 0.0
2018-Feb-10 06:58N 45°34' W 122°43'0 0.0
2018-Feb-10 06:28N 45°34' W 122°43'0 0.0
2018-Feb-10 05:58N 45°34' W 122°43'0 0.0
2018-Feb-10 05:28N 45°34' W 122°43'0 0.0
2018-Feb-10 04:55N 45°34' W 122°43'0 0.0
2018-Feb-10 04:28N 45°34' W 122°43'0 0.0
2018-Feb-10 03:58N 45°34' W 122°43'0 0.0
2018-Feb-10 03:28N 45°34' W 122°43'0 0.0
2018-Feb-10 02:58N 45°34' W 122°43'0 0.0
2018-Feb-10 02:28N 45°34' W 122°43'0 0.0
2018-Feb-10 01:58N 45°34' W 122°43'  

Dump ship's entire track history